createdAt,value
2023-01-21T00:01:44.737Z,16.70
2023-01-21T00:04:12.060Z,16.30
2023-01-21T00:06:39.306Z,15.75
2023-01-21T00:09:06.640Z,15.75
2023-01-21T00:11:33.868Z,15.93
2023-01-21T00:14:03.377Z,15.38
2023-01-21T00:16:32.753Z,14.23
2023-01-21T00:19:00.029Z,14.90
2023-01-21T00:21:29.554Z,15.50
2023-01-21T00:23:56.811Z,15.40
2023-01-21T00:26:24.093Z,14.25
2023-01-21T00:28:53.660Z,15.05
2023-01-21T00:31:23.396Z,14.73
2023-01-21T00:33:50.712Z,14.60
2023-01-21T00:36:18.610Z,15.75
2023-01-21T00:38:51.518Z,16.33
2023-01-21T00:41:18.788Z,16.02
2023-01-21T00:43:48.628Z,16.90
2023-01-21T00:46:16.431Z,16.48
2023-01-21T00:48:44.015Z,17.25
2023-01-21T00:51:11.804Z,18.17
2023-01-21T00:53:43.257Z,18.17
2023-01-21T00:56:12.576Z,17.60
2023-01-21T00:58:48.472Z,18.95
2023-01-21T01:01:21.622Z,18.60
2023-01-21T01:03:50.009Z,19.33
2023-01-21T01:06:23.084Z,19.80
2023-01-21T01:08:54.266Z,20.27
2023-01-21T01:11:22.253Z,19.90
2023-01-21T01:13:49.504Z,20.63
2023-01-21T01:16:17.267Z,21.08
2023-01-21T01:18:44.984Z,19.05
2023-01-21T01:21:16.999Z,21.05
2023-01-21T01:23:50.756Z,20.90
2023-01-21T01:26:20.027Z,21.15
2023-01-21T01:28:47.791Z,20.25
2023-01-21T01:31:17.218Z,22.25
2023-01-21T01:33:47.543Z,20.70
2023-01-21T01:36:20.577Z,20.63
2023-01-21T01:38:47.812Z,21.20
2023-01-21T01:41:18.372Z,22.50
2023-01-21T01:44:01.150Z,21.23
2023-01-21T01:46:38.905Z,23.02
2023-01-21T01:49:16.857Z,21.83
2023-01-21T01:51:57.503Z,22.40
2023-01-21T01:54:29.596Z,23.60
2023-01-21T01:57:00.244Z,23.23
2023-01-21T01:59:29.163Z,22.88
2023-01-21T02:02:01.886Z,22.08
2023-01-21T02:04:33.482Z,23.15
2023-01-21T02:07:00.796Z,22.70
2023-01-21T02:09:32.655Z,22.58
2023-01-21T02:12:02.260Z,22.65
2023-01-21T02:14:33.997Z,24.90
2023-01-21T02:17:29.751Z,24.83
2023-01-21T02:20:15.100Z,25.30
2023-01-21T02:22:48.397Z,24.73
2023-01-21T02:28:19.528Z,23.25
2023-01-21T02:31:12.726Z,24.13
2023-01-21T02:33:50.141Z,25.48
2023-01-21T02:36:41.894Z,26.20
2023-01-21T02:39:23.720Z,23.80
2023-01-21T02:42:10.128Z,25.48
2023-01-21T02:44:44.187Z,26.15
2023-01-21T02:47:32.415Z,24.67
2023-01-21T02:50:24.972Z,24.55
2023-01-21T02:53:00.277Z,24.60
2023-01-21T02:55:34.986Z,24.88
2023-01-21T02:58:14.119Z,23.92
2023-01-21T03:00:50.410Z,25.55
2023-01-21T03:03:52.287Z,23.45
2023-01-21T03:06:30.147Z,24.50
2023-01-21T03:09:10.945Z,23.70
2023-01-21T03:11:40.823Z,23.30
2023-01-21T03:14:42.390Z,24.38
2023-01-21T03:17:46.866Z,24.83
2023-01-21T03:20:29.050Z,24.83
2023-01-21T03:23:09.820Z,24.40
2023-01-21T03:25:41.113Z,22.65
2023-01-21T03:28:13.096Z,24.35
2023-01-21T03:30:45.526Z,23.67
2023-01-21T03:33:14.623Z,24.40
2023-01-21T03:35:45.530Z,24.33
2023-01-21T03:38:22.787Z,24.48
2023-01-21T03:41:10.955Z,23.35
2023-01-21T03:43:42.961Z,23.55
2023-01-21T03:46:19.630Z,22.63
2023-01-21T03:48:54.899Z,23.27
2023-01-21T03:51:27.700Z,23.27
2023-01-21T03:53:59.534Z,22.20
2023-01-21T03:56:27.770Z,23.65
2023-01-21T03:58:55.235Z,23.60
2023-01-21T04:01:22.804Z,23.27
2023-01-21T04:03:54.812Z,24.42
2023-01-21T04:06:24.504Z,24.08
2023-01-21T04:08:51.753Z,23.23
2023-01-21T04:11:19.063Z,22.88
2023-01-21T04:13:46.293Z,22.13
2023-01-21T04:16:13.648Z,24.33
2023-01-21T04:18:40.889Z,22.90
2023-01-21T04:21:08.318Z,23.10
2023-01-21T04:23:40.165Z,24.25
2023-01-21T04:26:07.790Z,23.30
2023-01-21T04:28:35.044Z,24.13
2023-01-21T04:31:04.882Z,23.88
2023-01-21T04:33:34.646Z,24.42
2023-01-21T04:36:01.913Z,25.90
2023-01-21T04:38:34.201Z,25.00
2023-01-21T04:41:01.498Z,23.97
2023-01-21T04:43:28.783Z,25.35
2023-01-21T04:45:56.213Z,24.90
2023-01-21T04:48:26.142Z,24.73
2023-01-21T04:50:53.393Z,25.42
2023-01-21T04:53:20.730Z,26.80
2023-01-21T04:55:50.564Z,25.70
2023-01-21T04:58:18.026Z,25.48
2023-01-21T05:00:47.411Z,26.52
2023-01-21T05:03:17.846Z,25.80
2023-01-21T05:05:45.153Z,27.02
2023-01-21T05:08:15.433Z,27.33
2023-01-21T05:10:45.521Z,26.50
2023-01-21T05:13:13.110Z,25.35
2023-01-21T05:15:42.622Z,27.80
2023-01-21T05:18:09.967Z,27.40
2023-01-21T05:20:37.209Z,27.98
2023-01-21T05:23:04.455Z,27.42
2023-01-21T05:25:31.707Z,27.70
2023-01-21T05:27:58.953Z,28.00
2023-01-21T05:30:26.374Z,26.67
2023-01-21T05:32:54.970Z,28.23
2023-01-21T05:35:25.560Z,29.77
2023-01-21T05:37:52.825Z,28.33
2023-01-21T05:40:20.486Z,27.83
2023-01-21T05:42:47.929Z,27.95
2023-01-21T05:45:17.819Z,27.23
2023-01-21T05:47:45.180Z,29.35
2023-01-21T05:50:13.123Z,28.90
2023-01-21T05:52:40.641Z,30.35
2023-01-21T05:55:08.527Z,28.88
2023-01-21T05:57:35.844Z,29.27
2023-01-21T06:00:03.405Z,30.15
2023-01-21T06:02:30.891Z,29.60
2023-01-21T06:04:58.140Z,30.25
2023-01-21T06:07:25.401Z,28.63
2023-01-21T06:09:52.709Z,30.30
2023-01-21T06:12:23.882Z,29.30
2023-01-21T06:14:52.043Z,31.02
2023-01-21T06:17:21.621Z,28.38
2023-01-21T06:19:48.972Z,28.90
2023-01-21T06:22:21.877Z,28.77
2023-01-21T06:24:51.222Z,29.90
2023-01-21T06:27:20.959Z,30.33
2023-01-21T06:29:48.266Z,28.35
2023-01-21T06:32:15.550Z,30.40
2023-01-21T06:34:45.177Z,29.42
2023-01-21T06:37:13.828Z,28.80
2023-01-21T06:39:41.358Z,30.52
2023-01-21T06:42:10.726Z,29.35
2023-01-21T06:44:37.966Z,27.95
2023-01-21T06:47:05.380Z,27.80
2023-01-21T06:49:37.495Z,29.60
2023-01-21T06:52:05.265Z,29.13
2023-01-21T06:54:32.757Z,29.02
2023-01-21T06:57:02.125Z,28.95
2023-01-21T06:59:29.513Z,28.58
2023-01-21T07:01:59.084Z,28.92
2023-01-21T07:04:27.321Z,26.83
2023-01-21T07:06:54.761Z,27.73
2023-01-21T07:09:22.320Z,28.15
2023-01-21T07:11:52.030Z,28.35
2023-01-21T07:14:19.323Z,28.42
2023-01-21T07:16:48.673Z,29.63
2023-01-21T07:19:15.894Z,29.83
2023-01-21T07:21:43.188Z,27.63
2023-01-21T07:24:10.504Z,27.48
2023-01-21T07:26:41.497Z,26.88
2023-01-21T07:29:11.291Z,27.63
2023-01-21T07:31:38.699Z,27.17
2023-01-21T07:34:06.367Z,25.85
2023-01-21T07:36:36.099Z,25.65
2023-01-21T07:39:07.840Z,25.65
2023-01-21T07:41:39.856Z,25.88
2023-01-21T07:44:09.729Z,24.88
2023-01-21T07:46:38.418Z,24.48
2023-01-21T07:49:05.740Z,25.70
2023-01-21T07:51:35.173Z,25.67
2023-01-21T07:54:02.399Z,24.25
2023-01-21T07:56:29.685Z,24.73
2023-01-21T07:59:01.366Z,25.80
2023-01-21T08:01:31.474Z,24.95
2023-01-21T08:03:59.668Z,25.55
2023-01-21T08:06:27.037Z,25.70
2023-01-21T08:08:54.355Z,25.05
2023-01-21T08:11:21.666Z,24.80
2023-01-21T08:13:51.400Z,25.13
2023-01-21T08:16:18.781Z,24.83
2023-01-21T08:18:46.092Z,22.40
2023-01-21T08:21:15.537Z,22.38
2023-01-21T08:23:42.855Z,24.23
2023-01-21T08:26:12.355Z,24.52
2023-01-21T08:28:41.845Z,23.88
2023-01-21T08:31:15.510Z,23.80
2023-01-21T08:33:48.311Z,24.10
2023-01-21T08:36:20.269Z,23.90
2023-01-21T08:38:52.460Z,22.15
2023-01-21T08:41:19.801Z,22.65
2023-01-21T08:43:49.399Z,23.27
2023-01-21T08:46:16.638Z,22.85
2023-01-21T08:48:46.384Z,23.52
2023-01-21T08:51:13.762Z,23.02
2023-01-21T08:53:41.035Z,23.80
2023-01-21T08:56:12.907Z,23.02
2023-01-21T08:58:42.669Z,23.85
2023-01-21T09:01:12.435Z,21.67
2023-01-21T09:03:42.187Z,21.00
2023-01-21T09:06:11.959Z,21.13
2023-01-21T09:08:42.152Z,20.85
2023-01-21T09:11:10.236Z,20.40
2023-01-21T09:13:39.193Z,20.80
2023-01-21T09:16:12.432Z,19.60
2023-01-21T09:21:11.007Z,18.35
2023-01-21T09:23:41.202Z,20.00
2023-01-21T09:26:22.319Z,17.48
2023-01-21T09:28:57.278Z,17.13
2023-01-21T09:31:26.472Z,16.92
2023-01-21T09:33:58.019Z,16.92
2023-01-21T09:36:32.207Z,16.60
2023-01-21T09:38:59.837Z,18.92
2023-01-21T09:41:51.395Z,16.65
2023-01-21T09:44:37.833Z,16.15
2023-01-21T09:47:24.810Z,15.75
2023-01-21T09:50:07.964Z,16.98
2023-01-21T09:52:41.213Z,17.05
2023-01-21T09:55:35.501Z,16.00
2023-01-21T09:58:16.349Z,15.13
2023-01-21T10:01:08.566Z,16.45
2023-01-21T10:03:50.338Z,14.82
2023-01-21T10:06:30.227Z,15.32
2023-01-21T10:09:21.554Z,15.98
2023-01-21T10:12:07.064Z,16.15
2023-01-21T10:14:39.732Z,16.42
2023-01-21T10:17:39.118Z,15.55
2023-01-21T10:20:12.706Z,15.10
2023-01-21T10:22:48.125Z,15.88
2023-01-21T10:25:22.975Z,15.25
2023-01-21T10:27:52.393Z,15.43
2023-01-21T10:30:26.614Z,15.30
2023-01-21T10:32:58.419Z,15.07
2023-01-21T10:35:56.467Z,14.95
2023-01-21T10:38:23.774Z,15.35
2023-01-21T10:41:17.530Z,16.75
2023-01-21T10:43:53.454Z,15.77
2023-01-21T10:47:01.979Z,15.30
2023-01-21T10:49:44.373Z,14.77
2023-01-21T10:52:48.312Z,15.70
2023-01-21T10:55:24.075Z,15.73
2023-01-21T10:58:03.615Z,16.73
2023-01-21T11:00:40.648Z,17.20
2023-01-21T11:03:41.446Z,15.45
2023-01-21T11:06:13.727Z,16.25
2023-01-21T11:08:46.687Z,16.42
2023-01-21T11:11:20.795Z,15.65
2023-01-21T11:13:48.049Z,15.82
2023-01-21T11:16:36.188Z,16.27
2023-01-21T11:19:06.472Z,16.50
2023-01-21T11:21:34.242Z,15.85
2023-01-21T11:24:06.199Z,16.27
2023-01-21T11:26:48.793Z,15.95
2023-01-21T11:29:18.210Z,17.00
2023-01-21T11:31:49.048Z,16.45
2023-01-21T11:34:23.522Z,17.48
2023-01-21T11:37:21.969Z,16.67
2023-01-21T11:39:56.726Z,17.00
2023-01-21T11:42:24.801Z,19.63
2023-01-21T11:45:26.615Z,19.67
2023-01-21T11:47:54.218Z,21.67
2023-01-21T11:50:37.746Z,20.90
2023-01-21T11:55:59.618Z,21.02
2023-01-21T11:58:31.435Z,21.85
2023-01-21T12:01:01.699Z,21.35
2023-01-21T12:03:45.727Z,21.85
2023-01-21T12:06:44.962Z,21.38
2023-01-21T12:09:18.263Z,23.05
2023-01-21T12:14:18.893Z,23.50
2023-01-21T12:17:06.334Z,22.63
2023-01-21T12:19:36.428Z,22.25
2023-01-21T12:22:22.359Z,22.40
2023-01-21T12:25:13.713Z,30.35
2023-01-21T12:27:53.084Z,26.40
2023-01-21T12:30:23.151Z,21.75
2023-01-21T12:33:22.597Z,23.38
2023-01-21T12:35:55.002Z,22.80
2023-01-21T12:38:46.953Z,22.13
2023-01-21T12:41:30.841Z,20.92
2023-01-21T12:44:20.110Z,20.42
2023-01-21T12:46:54.162Z,20.88
2023-01-21T12:49:29.297Z,21.05
2023-01-21T12:52:05.427Z,20.58
2023-01-21T12:55:01.736Z,20.15
2023-01-21T12:57:53.625Z,24.30
2023-01-21T13:00:34.799Z,20.13
2023-01-21T13:03:31.369Z,20.88
2023-01-21T13:06:14.781Z,19.35
2023-01-21T13:08:50.004Z,20.35
2023-01-21T13:11:26.157Z,21.20
2023-01-21T13:14:07.663Z,20.65
2023-01-21T13:16:52.898Z,20.67
2023-01-21T13:19:20.427Z,19.42
2023-01-21T13:22:18.392Z,19.73
2023-01-21T13:25:04.871Z,20.00
2023-01-21T13:27:56.085Z,19.67
2023-01-21T13:30:29.289Z,20.85
2023-01-21T13:35:52.281Z,18.13
2023-01-21T13:38:34.947Z,19.90
2023-01-21T13:41:04.627Z,19.23
2023-01-21T13:44:14.105Z,18.10
2023-01-21T13:47:09.074Z,18.40
2023-01-21T13:49:55.680Z,20.02
2023-01-21T13:52:54.256Z,18.90
2023-01-21T13:55:30.717Z,19.02
2023-01-21T13:58:03.973Z,17.15
2023-01-21T14:03:28.562Z,17.33
2023-01-21T14:06:21.522Z,17.70
2023-01-21T14:09:00.937Z,17.30
2023-01-21T14:11:48.319Z,16.35
2023-01-21T14:14:45.819Z,17.02
2023-01-21T14:18:00.867Z,15.73
2023-01-21T14:20:52.242Z,15.65
2023-01-21T14:23:44.894Z,16.48
2023-01-21T14:26:43.539Z,16.75
2023-01-21T14:29:25.595Z,16.10
2023-01-21T14:31:58.394Z,14.82
2023-01-21T14:34:33.551Z,14.73
2023-01-21T14:37:42.172Z,14.63
2023-01-21T14:40:36.111Z,14.52
2023-01-21T14:43:08.536Z,14.20
2023-01-21T14:46:27.243Z,15.20
2023-01-21T14:49:12.059Z,16.17
2023-01-21T14:51:49.675Z,16.40
2023-01-21T14:54:23.375Z,15.98
2023-01-21T14:57:17.375Z,15.55
2023-01-21T14:59:49.456Z,16.23
2023-01-21T15:02:27.196Z,15.23
2023-01-21T15:05:04.522Z,15.85
2023-01-21T15:07:39.151Z,15.85
2023-01-21T15:10:16.477Z,15.20
2023-01-21T15:12:55.253Z,14.82
2023-01-21T15:15:36.945Z,15.07
2023-01-21T15:18:27.695Z,15.23
2023-01-21T15:20:58.652Z,15.55
2023-01-21T15:23:35.790Z,15.55
2023-01-21T15:26:19.298Z,16.35
2023-01-21T15:28:52.197Z,17.17
2023-01-21T15:31:23.674Z,16.20
2023-01-21T15:34:02.925Z,16.40
2023-01-21T15:36:32.757Z,16.65
2023-01-21T15:39:12.247Z,15.40
2023-01-21T15:42:16.195Z,16.50
2023-01-21T15:45:02.943Z,16.52
2023-01-21T15:47:52.111Z,16.55
2023-01-21T15:50:30.151Z,14.73
2023-01-21T15:53:22.033Z,33.40
2023-01-21T15:56:10.828Z,27.85
2023-01-21T15:59:10.221Z,22.73
2023-01-21T16:01:41.371Z,18.83
2023-01-21T16:04:35.863Z,17.00
2023-01-21T16:07:18.017Z,17.27
2023-01-21T16:09:55.253Z,19.20
2023-01-21T16:12:40.519Z,18.08
2023-01-21T16:15:32.453Z,17.38
2023-01-21T16:18:33.612Z,17.77
2023-01-21T16:21:02.910Z,14.93
2023-01-21T16:23:35.899Z,16.05
2023-01-21T16:26:06.178Z,14.88
2023-01-21T16:28:45.713Z,15.50
2023-01-21T16:31:13.125Z,16.20
2023-01-21T16:33:40.723Z,15.10
2023-01-21T16:36:14.243Z,16.48
2023-01-21T16:38:43.831Z,15.98
2023-01-21T16:41:11.059Z,16.77
2023-01-21T16:43:52.515Z,16.10
2023-01-21T16:46:34.920Z,15.48
2023-01-21T16:49:04.875Z,15.73
2023-01-21T16:51:35.676Z,16.10
2023-01-21T16:54:30.899Z,16.05
2023-01-21T16:57:01.002Z,14.98
2023-01-21T16:59:29.672Z,16.17
2023-01-21T17:02:00.273Z,15.93
2023-01-21T17:04:28.614Z,16.20
2023-01-21T17:06:56.544Z,16.52
2023-01-21T17:09:38.833Z,17.52
2023-01-21T17:12:08.847Z,15.65
2023-01-21T17:14:37.517Z,17.90
2023-01-21T17:17:07.978Z,17.77
2023-01-21T17:19:42.035Z,17.05
2023-01-21T17:22:18.586Z,18.00
2023-01-21T17:25:04.440Z,17.15
2023-01-21T17:27:33.302Z,16.80
2023-01-21T17:30:30.700Z,17.00
2023-01-21T17:33:02.526Z,16.90
2023-01-21T17:35:33.554Z,17.75
2023-01-21T17:38:03.183Z,17.52
2023-01-21T17:40:51.654Z,17.02
2023-01-21T17:43:24.455Z,17.55
2023-01-21T17:45:58.940Z,17.65
2023-01-21T17:48:33.481Z,19.08
2023-01-21T17:51:14.593Z,18.05
2023-01-21T17:53:49.318Z,17.92
2023-01-21T17:56:36.122Z,19.50
2023-01-21T17:59:03.609Z,17.95
2023-01-21T18:01:31.349Z,18.25
2023-01-21T18:04:01.019Z,18.02
2023-01-21T18:06:33.830Z,17.80
2023-01-21T18:09:04.297Z,17.98
2023-01-21T18:11:31.582Z,18.85
2023-01-21T18:14:01.526Z,18.00
2023-01-21T18:16:28.887Z,18.35
2023-01-21T18:18:56.347Z,18.92
2023-01-21T18:21:23.737Z,18.65
2023-01-21T18:23:51.281Z,18.50
2023-01-21T18:26:28.722Z,18.42
2023-01-21T18:28:58.693Z,18.55
2023-01-21T18:31:26.132Z,18.55
2023-01-21T18:33:53.548Z,19.25
2023-01-21T18:36:23.087Z,18.27
2023-01-21T18:38:50.377Z,19.20
2023-01-21T18:41:17.644Z,18.02
2023-01-21T18:43:44.982Z,17.63
2023-01-21T18:46:16.368Z,19.27
2023-01-21T18:48:43.829Z,18.52
2023-01-21T18:51:13.297Z,17.55
2023-01-21T18:53:40.618Z,18.20
2023-01-21T18:56:12.752Z,18.77
2023-01-21T18:58:40.193Z,18.45
2023-01-21T19:01:21.047Z,18.67
2023-01-21T19:03:52.493Z,19.00
2023-01-21T19:06:21.929Z,19.27
2023-01-21T19:08:51.620Z,18.13
2023-01-21T19:11:19.009Z,18.90
2023-01-21T19:13:46.448Z,19.05
2023-01-21T19:16:16.911Z,19.33
2023-01-21T19:18:44.508Z,20.30
2023-01-21T19:21:12.480Z,19.02
2023-01-21T19:23:42.254Z,19.55
2023-01-21T19:26:14.566Z,19.75
2023-01-21T19:28:42.233Z,19.70
2023-01-21T19:31:09.627Z,20.08
2023-01-21T19:33:36.964Z,20.35
2023-01-21T19:36:15.981Z,20.48
2023-01-21T19:38:58.751Z,20.25
2023-01-21T19:41:26.108Z,20.30
2023-01-21T19:43:55.704Z,21.58
2023-01-21T19:46:23.900Z,20.05
2023-01-21T19:48:53.558Z,20.38
2023-01-21T19:51:23.356Z,20.38
2023-01-21T19:53:50.657Z,20.10
2023-01-21T19:56:23.706Z,20.92
2023-01-21T19:58:51.258Z,19.75
2023-01-21T20:01:20.978Z,20.70
2023-01-21T20:03:59.692Z,19.38
2023-01-21T20:06:30.065Z,20.40
2023-01-21T20:09:00.241Z,19.70
2023-01-21T20:11:27.675Z,19.42
2023-01-21T20:13:57.043Z,18.83
2023-01-21T20:16:27.350Z,19.83
2023-01-21T20:18:56.167Z,18.50
2023-01-21T20:21:25.678Z,17.60
2023-01-21T20:23:55.051Z,19.20
2023-01-21T20:26:27.274Z,20.05
2023-01-21T20:28:54.689Z,19.70
2023-01-21T20:31:22.157Z,19.30
2023-01-21T20:33:51.849Z,19.48
2023-01-21T20:36:25.904Z,18.60
2023-01-21T20:38:54.367Z,20.33
2023-01-21T20:41:21.853Z,18.08
2023-01-21T20:43:49.116Z,19.17
2023-01-21T20:46:25.322Z,20.45
2023-01-21T20:48:52.829Z,17.98
2023-01-21T20:51:22.919Z,19.38
2023-01-21T20:53:52.695Z,17.95
2023-01-21T20:56:27.932Z,19.83
2023-01-21T20:58:55.197Z,19.85
2023-01-21T21:01:26.719Z,20.23
2023-01-21T21:03:54.009Z,21.83
2023-01-21T21:06:29.042Z,20.90
2023-01-21T21:08:58.975Z,22.80
2023-01-21T21:11:26.305Z,21.52
2023-01-21T21:13:53.578Z,21.08
2023-01-21T21:16:31.757Z,19.42
2023-01-21T21:19:01.283Z,20.67
2023-01-21T21:21:31.066Z,20.52
2023-01-21T21:23:58.348Z,19.60
2023-01-21T21:26:29.087Z,19.38
2023-01-21T21:28:57.807Z,19.42
2023-01-21T21:31:27.833Z,19.83
2023-01-21T21:33:57.330Z,20.63
2023-01-21T21:36:24.981Z,19.70
2023-01-21T21:38:55.725Z,20.10
2023-01-21T21:41:43.251Z,20.27
2023-01-21T21:44:11.981Z,20.17
2023-01-21T21:46:58.282Z,20.10
2023-01-21T21:49:28.313Z,18.88
2023-01-21T21:52:00.125Z,17.55
2023-01-21T21:54:27.523Z,20.25
2023-01-21T21:56:55.161Z,19.90
2023-01-21T21:59:24.979Z,18.77
2023-01-21T22:01:54.469Z,19.00
2023-01-21T22:04:24.178Z,17.95
2023-01-21T22:06:51.695Z,18.70
2023-01-21T22:09:19.256Z,20.20
2023-01-21T22:11:48.688Z,17.98
2023-01-21T22:14:18.466Z,19.48
2023-01-21T22:16:45.943Z,20.75
2023-01-21T22:19:13.355Z,20.13
2023-01-21T22:21:40.696Z,19.15
2023-01-21T22:24:08.290Z,21.50
2023-01-21T22:26:36.077Z,21.70
2023-01-21T22:29:09.145Z,21.70
2023-01-21T22:31:36.523Z,17.00
2023-01-21T22:34:03.866Z,16.02
2023-01-21T22:36:33.630Z,15.73
2023-01-21T22:39:01.087Z,14.55
2023-01-21T22:41:33.855Z,15.50
2023-01-21T22:44:03.277Z,16.20
2023-01-21T22:46:34.120Z,14.77
2023-01-21T22:49:06.736Z,14.52
2023-01-21T22:51:39.060Z,14.18
2023-01-21T22:54:08.918Z,14.68
2023-01-21T22:56:50.857Z,15.05
2023-01-21T22:59:19.269Z,11.98
2023-01-21T23:01:51.518Z,15.20
2023-01-21T23:04:18.919Z,16.10
2023-01-21T23:06:51.102Z,15.68
2023-01-21T23:09:18.412Z,17.08
2023-01-21T23:11:45.698Z,16.02
2023-01-21T23:14:17.959Z,16.13
2023-01-21T23:16:48.290Z,12.75
2023-01-21T23:19:19.966Z,15.32
2023-01-21T23:21:49.353Z,16.67
2023-01-21T23:24:16.658Z,16.15
2023-01-21T23:26:46.369Z,16.30
2023-01-21T23:29:15.819Z,16.55
2023-01-21T23:31:43.350Z,17.27
2023-01-21T23:34:14.288Z,17.52
2023-01-21T23:36:41.526Z,16.27
2023-01-21T23:39:08.921Z,17.70
2023-01-21T23:41:36.210Z,16.60
2023-01-21T23:44:04.147Z,16.67
2023-01-21T23:46:31.449Z,17.85
2023-01-21T23:49:01.258Z,17.48
2023-01-21T23:51:28.646Z,18.35
2023-01-21T23:53:58.845Z,17.70
2023-01-21T23:56:26.647Z,16.48
2023-01-21T23:58:54.396Z,16.83
